sensor_id;sensor_type;location;lat;lon;timestamp;temperature;humidity
2389;DHT22;1205;47.984;7.668;2024-02-28T00:01:58;9.20;99.90
2389;DHT22;1205;47.984;7.668;2024-02-28T00:04:24;9.30;99.90
2389;DHT22;1205;47.984;7.668;2024-02-28T00:06:50;9.10;99.90
2389;DHT22;1205;47.984;7.668;2024-02-28T00:09:15;9.00;99.90
2389;DHT22;1205;47.984;7.668;2024-02-28T00:11:45;9.00;99.90
2389;DHT22;1205;47.984;7.668;2024-02-28T00:14:14;8.90;99.90
2389;DHT22;1205;47.984;7.668;2024-02-28T00:16:53;8.80;99.90
2389;DHT22;1205;47.984;7.668;2024-02-28T00:19:31;8.80;99.90
2389;DHT22;1205;47.984;7.668;2024-02-28T00:22:00;8.80;99.90
2389;DHT22;1205;47.984;7.668;2024-02-28T00:24:27;8.80;99.90
2389;DHT22;1205;47.984;7.668;2024-02-28T00:26:53;8.80;99.90
2389;DHT22;1205;47.984;7.668;2024-02-28T00:29:20;8.60;99.90
2389;DHT22;1205;47.984;7.668;2024-02-28T00:31:46;8.70;99.90
2389;DHT22;1205;47.984;7.668;2024-02-28T00:34:12;8.80;99.90
2389;DHT22;1205;47.984;7.668;2024-02-28T00:39:28;8.70;99.90
2389;DHT22;1205;47.984;7.668;2024-02-28T00:42:18;8.70;99.90
2389;DHT22;1205;47.984;7.668;2024-02-28T00:44:44;8.70;99.90
2389;DHT22;1205;47.984;7.668;2024-02-28T00:47:25;8.70;99.90
2389;DHT22;1205;47.984;7.668;2024-02-28T00:50:00;8.70;99.90
2389;DHT22;1205;47.984;7.668;2024-02-28T00:52:35;8.70;99.90
2389;DHT22;1205;47.984;7.668;2024-02-28T00:55:01;8.70;99.90
2389;DHT22;1205;47.984;7.668;2024-02-28T00:57:27;8.70;99.90
2389;DHT22;1205;47.984;7.668;2024-02-28T01:00:04;8.70;99.90
2389;DHT22;1205;47.984;7.668;2024-02-28T01:02:39;8.60;99.90
2389;DHT22;1205;47.984;7.668;2024-02-28T01:05:11;8.70;99.90
2389;DHT22;1205;47.984;7.668;2024-02-28T01:07:43;8.70;99.90
2389;DHT22;1205;47.984;7.668;2024-02-28T01:10:14;8.70;99.90
2389;DHT22;1205;47.984;7.668;2024-02-28T01:13:06;8.60;99.90
2389;DHT22;1205;47.984;7.668;2024-02-28T01:15:44;8.60;99.90
2389;DHT22;1205;47.984;7.668;2024-02-28T01:18:16;8.60;99.90
2389;DHT22;1205;47.984;7.668;2024-02-28T01:20:44;8.70;99.90
2389;DHT22;1205;47.984;7.668;2024-02-28T01:23:10;8.70;99.90
2389;DHT22;1205;47.984;7.668;2024-02-28T01:25:42;8.60;99.90
2389;DHT22;1205;47.984;7.668;2024-02-28T01:28:13;8.60;99.90
2389;DHT22;1205;47.984;7.668;2024-02-28T01:30:53;8.50;99.90
2389;DHT22;1205;47.984;7.668;2024-02-28T01:33:22;8.50;99.90
2389;DHT22;1205;47.984;7.668;2024-02-28T01:35:50;8.50;99.90
2389;DHT22;1205;47.984;7.668;2024-02-28T01:41:07;8.50;99.90
2389;DHT22;1205;47.984;7.668;2024-02-28T01:46:33;8.40;99.90
2389;DHT22;1205;47.984;7.668;2024-02-28T01:49:18;8.50;99.90
2389;DHT22;1205;47.984;7.668;2024-02-28T01:52:06;8.50;99.90
2389;DHT22;1205;47.984;7.668;2024-02-28T01:54:56;8.60;99.90
2389;DHT22;1205;47.984;7.668;2024-02-28T01:57:26;8.60;99.90
2389;DHT22;1205;47.984;7.668;2024-02-28T02:00:33;8.50;99.90
2389;DHT22;1205;47.984;7.668;2024-02-28T02:03:05;8.50;99.90
2389;DHT22;1205;47.984;7.668;2024-02-28T02:05:31;8.40;99.90
2389;DHT22;1205;47.984;7.668;2024-02-28T02:08:04;8.40;99.90
2389;DHT22;1205;47.984;7.668;2024-02-28T02:10:31;8.40;99.90
2389;DHT22;1205;47.984;7.668;2024-02-28T02:13:04;8.40;99.90
2389;DHT22;1205;47.984;7.668;2024-02-28T02:15:30;8.40;99.90
2389;DHT22;1205;47.984;7.668;2024-02-28T02:17:59;8.30;99.90
2389;DHT22;1205;47.984;7.668;2024-02-28T02:20:33;8.30;99.90
2389;DHT22;1205;47.984;7.668;2024-02-28T02:23:03;8.30;99.90
2389;DHT22;1205;47.984;7.668;2024-02-28T02:25:29;8.30;99.90
2389;DHT22;1205;47.984;7.668;2024-02-28T02:27:54;8.10;99.90
2389;DHT22;1205;47.984;7.668;2024-02-28T02:30:20;8.10;99.90
2389;DHT22;1205;47.984;7.668;2024-02-28T02:32:46;8.20;99.90
2389;DHT22;1205;47.984;7.668;2024-02-28T02:35:24;8.20;99.90
2389;DHT22;1205;47.984;7.668;2024-02-28T02:37:52;8.20;99.90
2389;DHT22;1205;47.984;7.668;2024-02-28T02:40:28;8.20;99.90
2389;DHT22;1205;47.984;7.668;2024-02-28T02:42:54;8.10;99.90
2389;DHT22;1205;47.984;7.668;2024-02-28T02:45:25;8.20;99.90
2389;DHT22;1205;47.984;7.668;2024-02-28T02:48:00;8.30;99.90
2389;DHT22;1205;47.984;7.668;2024-02-28T02:50:26;8.30;99.90
2389;DHT22;1205;47.984;7.668;2024-02-28T02:52:54;8.20;99.90
2389;DHT22;1205;47.984;7.668;2024-02-28T02:55:23;8.10;99.90
2389;DHT22;1205;47.984;7.668;2024-02-28T02:57:52;8.20;99.90
2389;DHT22;1205;47.984;7.668;2024-02-28T03:00:22;8.10;99.90
2389;DHT22;1205;47.984;7.668;2024-02-28T03:02:48;8.20;99.90
2389;DHT22;1205;47.984;7.668;2024-02-28T03:05:16;8.20;99.90
2389;DHT22;1205;47.984;7.668;2024-02-28T03:07:42;8.20;99.90
2389;DHT22;1205;47.984;7.668;2024-02-28T03:10:34;8.20;99.90
2389;DHT22;1205;47.984;7.668;2024-02-28T03:13:06;8.10;99.90
2389;DHT22;1205;47.984;7.668;2024-02-28T03:15:44;8.20;99.90
2389;DHT22;1205;47.984;7.668;2024-02-28T03:18:12;8.10;99.90
2389;DHT22;1205;47.984;7.668;2024-02-28T03:20:45;8.20;99.90
2389;DHT22;1205;47.984;7.668;2024-02-28T03:23:10;8.20;99.90
2389;DHT22;1205;47.984;7.668;2024-02-28T03:25:36;8.20;99.90
2389;DHT22;1205;47.984;7.668;2024-02-28T03:28:41;8.20;99.90
2389;DHT22;1205;47.984;7.668;2024-02-28T03:31:25;8.20;99.90
2389;DHT22;1205;47.984;7.668;2024-02-28T03:34:03;8.10;99.90
2389;DHT22;1205;47.984;7.668;2024-02-28T03:36:36;8.10;99.90
2389;DHT22;1205;47.984;7.668;2024-02-28T03:39:02;8.10;99.90
2389;DHT22;1205;47.984;7.668;2024-02-28T03:41:41;8.10;99.90
2389;DHT22;1205;47.984;7.668;2024-02-28T03:44:07;8.10;99.90
2389;DHT22;1205;47.984;7.668;2024-02-28T03:46:36;8.10;99.90
2389;DHT22;1205;47.984;7.668;2024-02-28T03:49:20;8.10;99.90
2389;DHT22;1205;47.984;7.668;2024-02-28T03:52:33;8.10;99.90
2389;DHT22;1205;47.984;7.668;2024-02-28T04:01:26;8.10;99.90
2389;DHT22;1205;47.984;7.668;2024-02-28T04:03:55;8.10;99.90
2389;DHT22;1205;47.984;7.668;2024-02-28T04:06:24;8.10;99.90
2389;DHT22;1205;47.984;7.668;2024-02-28T04:09:14;8.10;99.90
2389;DHT22;1205;47.984;7.668;2024-02-28T04:11:45;8.10;99.90
2389;DHT22;1205;47.984;7.668;2024-02-28T04:14:17;8.20;99.90
2389;DHT22;1205;47.984;7.668;2024-02-28T04:17:32;8.10;99.90
2389;DHT22;1205;47.984;7.668;2024-02-28T04:20:28;8.10;99.90
2389;DHT22;1205;47.984;7.668;2024-02-28T04:23:03;8.10;99.90
2389;DHT22;1205;47.984;7.668;2024-02-28T04:26:01;8.20;99.90
2389;DHT22;1205;47.984;7.668;2024-02-28T04:28:35;8.20;99.90
2389;DHT22;1205;47.984;7.668;2024-02-28T04:31:54;8.10;99.90
2389;DHT22;1205;47.984;7.668;2024-02-28T04:38:11;8.20;99.90
2389;DHT22;1205;47.984;7.668;2024-02-28T04:44:02;8.10;99.90
2389;DHT22;1205;47.984;7.668;2024-02-28T04:47:29;8.10;99.90
2389;DHT22;1205;47.984;7.668;2024-02-28T04:50:02;8.00;99.90
2389;DHT22;1205;47.984;7.668;2024-02-28T04:55:51;8.00;99.90
2389;DHT22;1205;47.984;7.668;2024-02-28T04:58:41;8.00;99.90
2389;DHT22;1205;47.984;7.668;2024-02-28T05:08:13;7.80;99.90
2389;DHT22;1205;47.984;7.668;2024-02-28T05:17:40;7.80;99.90
2389;DHT22;1205;47.984;7.668;2024-02-28T05:24:04;7.60;99.90
2389;DHT22;1205;47.984;7.668;2024-02-28T05:26:59;7.60;99.90
2389;DHT22;1205;47.984;7.668;2024-02-28T05:36:30;7.70;99.90
2389;DHT22;1205;47.984;7.668;2024-02-28T05:39:17;7.60;99.90
2389;DHT22;1205;47.984;7.668;2024-02-28T05:42:12;7.70;99.90
2389;DHT22;1205;47.984;7.668;2024-02-28T05:45:08;7.70;99.90
2389;DHT22;1205;47.984;7.668;2024-02-28T05:48:12;7.80;99.90
2389;DHT22;1205;47.984;7.668;2024-02-28T05:50:47;7.70;99.90
2389;DHT22;1205;47.984;7.668;2024-02-28T06:00:26;7.70;99.90
2389;DHT22;1205;47.984;7.668;2024-02-28T06:02:53;7.70;99.90
2389;DHT22;1205;47.984;7.668;2024-02-28T06:05:19;7.70;99.90
2389;DHT22;1205;47.984;7.668;2024-02-28T06:08:06;7.60;99.90
2389;DHT22;1205;47.984;7.668;2024-02-28T06:10:48;7.60;99.90
2389;DHT22;1205;47.984;7.668;2024-02-28T06:17:09;7.50;99.90
2389;DHT22;1205;47.984;7.668;2024-02-28T06:26:39;8.40;99.90
2389;DHT22;1205;47.984;7.668;2024-02-28T06:29:49;8.30;99.90
2389;DHT22;1205;47.984;7.668;2024-02-28T06:33:12;7.90;99.90
2389;DHT22;1205;47.984;7.668;2024-02-28T06:43:11;7.40;99.90
2389;DHT22;1205;47.984;7.668;2024-02-28T06:46:23;7.20;99.90
2389;DHT22;1205;47.984;7.668;2024-02-28T06:52:20;6.80;99.90
2389;DHT22;1205;47.984;7.668;2024-02-28T06:58:14;6.60;99.90
2389;DHT22;1205;47.984;7.668;2024-02-28T07:01:09;6.50;99.90
2389;DHT22;1205;47.984;7.668;2024-02-28T07:04:14;6.50;99.90
2389;DHT22;1205;47.984;7.668;2024-02-28T07:07:11;6.50;99.90
2389;DHT22;1205;47.984;7.668;2024-02-28T07:10:07;6.70;99.90
2389;DHT22;1205;47.984;7.668;2024-02-28T07:13:56;7.30;99.90
2389;DHT22;1205;47.984;7.668;2024-02-28T07:16:43;6.80;99.90
2389;DHT22;1205;47.984;7.668;2024-02-28T07:19:20;6.70;99.90
2389;DHT22;1205;47.984;7.668;2024-02-28T07:24:59;6.50;99.90
2389;DHT22;1205;47.984;7.668;2024-02-28T07:31:41;6.50;99.90
2389;DHT22;1205;47.984;7.668;2024-02-28T07:34:54;6.50;99.90
2389;DHT22;1205;47.984;7.668;2024-02-28T07:37:44;6.50;99.90
2389;DHT22;1205;47.984;7.668;2024-02-28T07:43:43;6.40;99.90
2389;DHT22;1205;47.984;7.668;2024-02-28T07:47:13;6.50;99.90
2389;DHT22;1205;47.984;7.668;2024-02-28T07:54:12;6.50;99.90
2389;DHT22;1205;47.984;7.668;2024-02-28T08:00:55;6.50;99.90
2389;DHT22;1205;47.984;7.668;2024-02-28T08:03:30;6.50;99.90
2389;DHT22;1205;47.984;7.668;2024-02-28T08:05:56;6.60;99.90
2389;DHT22;1205;47.984;7.668;2024-02-28T08:08:21;6.70;99.90
2389;DHT22;1205;47.984;7.668;2024-02-28T08:10:47;6.80;99.90
2389;DHT22;1205;47.984;7.668;2024-02-28T08:13:14;6.80;99.90
2389;DHT22;1205;47.984;7.668;2024-02-28T08:15:40;6.90;99.90
2389;DHT22;1205;47.984;7.668;2024-02-28T08:18:05;6.90;99.90
2389;DHT22;1205;47.984;7.668;2024-02-28T08:20:31;7.00;99.90
2389;DHT22;1205;47.984;7.668;2024-02-28T08:22:56;7.10;99.90
2389;DHT22;1205;47.984;7.668;2024-02-28T08:25:23;7.10;99.90
2389;DHT22;1205;47.984;7.668;2024-02-28T08:27:49;7.10;99.90
2389;DHT22;1205;47.984;7.668;2024-02-28T08:30:14;7.20;99.90
2389;DHT22;1205;47.984;7.668;2024-02-28T08:32:41;7.20;99.90
2389;DHT22;1205;47.984;7.668;2024-02-28T08:35:08;7.20;99.90
2389;DHT22;1205;47.984;7.668;2024-02-28T08:37:34;7.30;99.90
2389;DHT22;1205;47.984;7.668;2024-02-28T08:40:00;7.30;99.90
2389;DHT22;1205;47.984;7.668;2024-02-28T08:42:25;7.40;99.90
2389;DHT22;1205;47.984;7.668;2024-02-28T08:44:55;7.40;99.90
2389;DHT22;1205;47.984;7.668;2024-02-28T08:47:23;7.60;99.90
2389;DHT22;1205;47.984;7.668;2024-02-28T08:49:49;7.70;99.90
2389;DHT22;1205;47.984;7.668;2024-02-28T08:52:15;7.70;99.90
2389;DHT22;1205;47.984;7.668;2024-02-28T08:54:40;7.70;99.90
2389;DHT22;1205;47.984;7.668;2024-02-28T08:57:06;7.70;99.90
2389;DHT22;1205;47.984;7.668;2024-02-28T08:59:32;7.80;99.90
2389;DHT22;1205;47.984;7.668;2024-02-28T09:01:58;7.80;99.90
2389;DHT22;1205;47.984;7.668;2024-02-28T09:04:24;7.70;99.90
2389;DHT22;1205;47.984;7.668;2024-02-28T09:06:49;7.60;99.90
2389;DHT22;1205;47.984;7.668;2024-02-28T09:09:15;7.50;99.90
2389;DHT22;1205;47.984;7.668;2024-02-28T09:14:55;7.70;99.90
2389;DHT22;1205;47.984;7.668;2024-02-28T09:17:36;7.70;99.90
2389;DHT22;1205;47.984;7.668;2024-02-28T09:20:12;7.70;99.90
2389;DHT22;1205;47.984;7.668;2024-02-28T09:26:39;7.80;99.90
2389;DHT22;1205;47.984;7.668;2024-02-28T09:29:05;7.80;99.90
2389;DHT22;1205;47.984;7.668;2024-02-28T09:31:30;7.90;99.90
2389;DHT22;1205;47.984;7.668;2024-02-28T09:33:56;7.90;99.90
2389;DHT22;1205;47.984;7.668;2024-02-28T09:36:23;8.00;99.90
2389;DHT22;1205;47.984;7.668;2024-02-28T09:38:49;8.00;99.90
2389;DHT22;1205;47.984;7.668;2024-02-28T09:41:15;8.10;99.90
2389;DHT22;1205;47.984;7.668;2024-02-28T09:43:41;8.30;99.90
2389;DHT22;1205;47.984;7.668;2024-02-28T09:46:08;8.40;99.90
2389;DHT22;1205;47.984;7.668;2024-02-28T09:48:38;8.50;99.90
2389;DHT22;1205;47.984;7.668;2024-02-28T09:51:06;8.40;99.90
2389;DHT22;1205;47.984;7.668;2024-02-28T09:53:31;8.40;99.90
2389;DHT22;1205;47.984;7.668;2024-02-28T09:55:57;8.40;99.90
2389;DHT22;1205;47.984;7.668;2024-02-28T09:58:25;8.50;99.90
2389;DHT22;1205;47.984;7.668;2024-02-28T10:00:52;8.60;99.90
2389;DHT22;1205;47.984;7.668;2024-02-28T10:03:25;8.70;99.90
2389;DHT22;1205;47.984;7.668;2024-02-28T10:05:51;8.80;99.90
2389;DHT22;1205;47.984;7.668;2024-02-28T10:08:16;8.80;99.90
2389;DHT22;1205;47.984;7.668;2024-02-28T10:10:46;8.80;99.90
2389;DHT22;1205;47.984;7.668;2024-02-28T10:13:12;8.90;99.90
2389;DHT22;1205;47.984;7.668;2024-02-28T10:15:38;8.90;99.90
2389;DHT22;1205;47.984;7.668;2024-02-28T10:18:04;8.90;99.90
2389;DHT22;1205;47.984;7.668;2024-02-28T10:20:34;9.00;99.90
2389;DHT22;1205;47.984;7.668;2024-02-28T10:23:03;9.10;99.90
2389;DHT22;1205;47.984;7.668;2024-02-28T10:25:28;9.10;99.90
2389;DHT22;1205;47.984;7.668;2024-02-28T10:28:02;9.20;99.90
2389;DHT22;1205;47.984;7.668;2024-02-28T10:30:28;9.20;99.90
2389;DHT22;1205;47.984;7.668;2024-02-28T10:32:53;9.20;99.90
2389;DHT22;1205;47.984;7.668;2024-02-28T10:35:19;9.20;99.90
2389;DHT22;1205;47.984;7.668;2024-02-28T10:37:45;9.20;99.90
2389;DHT22;1205;47.984;7.668;2024-02-28T10:40:13;9.30;99.90
2389;DHT22;1205;47.984;7.668;2024-02-28T10:42:42;9.40;99.90
2389;DHT22;1205;47.984;7.668;2024-02-28T10:45:11;9.40;99.90
2389;DHT22;1205;47.984;7.668;2024-02-28T10:47:38;9.60;99.90
2389;DHT22;1205;47.984;7.668;2024-02-28T10:50:04;9.60;99.90
2389;DHT22;1205;47.984;7.668;2024-02-28T10:52:33;9.60;99.90
2389;DHT22;1205;47.984;7.668;2024-02-28T10:54:59;9.60;99.90
2389;DHT22;1205;47.984;7.668;2024-02-28T10:57:40;9.60;99.90
2389;DHT22;1205;47.984;7.668;2024-02-28T11:01:05;9.60;99.90
2389;DHT22;1205;47.984;7.668;2024-02-28T11:06:26;9.60;99.90
2389;DHT22;1205;47.984;7.668;2024-02-28T11:08:53;9.70;99.90
2389;DHT22;1205;47.984;7.668;2024-02-28T11:15:15;9.80;99.90
2389;DHT22;1205;47.984;7.668;2024-02-28T11:17:41;9.90;99.90
2389;DHT22;1205;47.984;7.668;2024-02-28T11:20:13;9.90;99.90
2389;DHT22;1205;47.984;7.668;2024-02-28T11:22:39;10.00;99.90
2389;DHT22;1205;47.984;7.668;2024-02-28T11:25:05;10.10;99.90
2389;DHT22;1205;47.984;7.668;2024-02-28T11:27:31;10.30;99.90
2389;DHT22;1205;47.984;7.668;2024-02-28T11:29:57;10.40;99.90
2389;DHT22;1205;47.984;7.668;2024-02-28T11:32:26;10.50;99.90
2389;DHT22;1205;47.984;7.668;2024-02-28T11:34:51;10.60;99.90
2389;DHT22;1205;47.984;7.668;2024-02-28T11:37:18;10.70;99.90
2389;DHT22;1205;47.984;7.668;2024-02-28T11:39:47;10.90;99.90
2389;DHT22;1205;47.984;7.668;2024-02-28T11:42:15;11.10;99.90
2389;DHT22;1205;47.984;7.668;2024-02-28T11:44:42;11.00;99.90
2389;DHT22;1205;47.984;7.668;2024-02-28T11:47:10;11.10;99.90
2389;DHT22;1205;47.984;7.668;2024-02-28T11:49:37;11.20;99.90
2389;DHT22;1205;47.984;7.668;2024-02-28T11:52:04;11.20;99.90
2389;DHT22;1205;47.984;7.668;2024-02-28T11:54:29;11.30;99.90
2389;DHT22;1205;47.984;7.668;2024-02-28T11:56:55;11.50;99.90
2389;DHT22;1205;47.984;7.668;2024-02-28T11:59:21;11.60;99.90
2389;DHT22;1205;47.984;7.668;2024-02-28T12:01:46;11.70;99.90
2389;DHT22;1205;47.984;7.668;2024-02-28T12:04:12;11.70;99.90
2389;DHT22;1205;47.984;7.668;2024-02-28T12:06:39;11.60;99.90
2389;DHT22;1205;47.984;7.668;2024-02-28T12:09:07;11.70;99.90
2389;DHT22;1205;47.984;7.668;2024-02-28T12:11:35;11.60;99.90
2389;DHT22;1205;47.984;7.668;2024-02-28T12:14:03;11.50;99.90
2389;DHT22;1205;47.984;7.668;2024-02-28T12:16:30;11.40;99.90
2389;DHT22;1205;47.984;7.668;2024-02-28T12:18:55;11.40;99.90
2389;DHT22;1205;47.984;7.668;2024-02-28T12:21:21;11.50;99.90
2389;DHT22;1205;47.984;7.668;2024-02-28T12:23:47;11.50;99.90
2389;DHT22;1205;47.984;7.668;2024-02-28T12:26:18;11.60;99.90
2389;DHT22;1205;47.984;7.668;2024-02-28T12:28:44;11.60;99.90
2389;DHT22;1205;47.984;7.668;2024-02-28T12:31:10;11.60;99.90
2389;DHT22;1205;47.984;7.668;2024-02-28T12:33:37;11.60;99.90
2389;DHT22;1205;47.984;7.668;2024-02-28T12:36:03;11.50;99.90
2389;DHT22;1205;47.984;7.668;2024-02-28T12:38:30;11.60;99.90
2389;DHT22;1205;47.984;7.668;2024-02-28T12:40:56;11.60;99.90
2389;DHT22;1205;47.984;7.668;2024-02-28T12:43:22;11.50;99.90
2389;DHT22;1205;47.984;7.668;2024-02-28T12:45:48;11.50;99.90
2389;DHT22;1205;47.984;7.668;2024-02-28T12:48:13;11.50;99.90
2389;DHT22;1205;47.984;7.668;2024-02-28T12:50:39;11.50;99.90
2389;DHT22;1205;47.984;7.668;2024-02-28T12:53:04;11.60;99.90
2389;DHT22;1205;47.984;7.668;2024-02-28T12:55:31;11.70;99.90
2389;DHT22;1205;47.984;7.668;2024-02-28T12:57:56;11.70;99.90
2389;DHT22;1205;47.984;7.668;2024-02-28T13:00:22;11.70;99.90
2389;DHT22;1205;47.984;7.668;2024-02-28T13:02:48;11.60;99.90
2389;DHT22;1205;47.984;7.668;2024-02-28T13:05:13;11.50;99.90
2389;DHT22;1205;47.984;7.668;2024-02-28T13:07:39;11.60;99.90
2389;DHT22;1205;47.984;7.668;2024-02-28T13:10:06;11.70;99.90
2389;DHT22;1205;47.984;7.668;2024-02-28T13:12:31;11.70;99.90
2389;DHT22;1205;47.984;7.668;2024-02-28T13:14:58;11.60;99.90
2389;DHT22;1205;47.984;7.668;2024-02-28T13:17:23;11.70;99.90
2389;DHT22;1205;47.984;7.668;2024-02-28T13:19:49;11.70;99.90
2389;DHT22;1205;47.984;7.668;2024-02-28T13:22:15;11.70;99.90
2389;DHT22;1205;47.984;7.668;2024-02-28T13:24:40;11.70;99.90
2389;DHT22;1205;47.984;7.668;2024-02-28T13:27:06;11.70;99.90
2389;DHT22;1205;47.984;7.668;2024-02-28T13:29:34;11.70;99.90
2389;DHT22;1205;47.984;7.668;2024-02-28T13:32:00;11.70;99.90
2389;DHT22;1205;47.984;7.668;2024-02-28T13:34:27;11.80;99.90
2389;DHT22;1205;47.984;7.668;2024-02-28T13:36:52;11.90;99.90
2389;DHT22;1205;47.984;7.668;2024-02-28T13:39:18;11.90;99.90
2389;DHT22;1205;47.984;7.668;2024-02-28T13:41:44;11.80;99.90
2389;DHT22;1205;47.984;7.668;2024-02-28T13:44:10;11.80;99.90
2389;DHT22;1205;47.984;7.668;2024-02-28T13:46:36;11.80;99.90
2389;DHT22;1205;47.984;7.668;2024-02-28T13:49:03;11.70;99.90
2389;DHT22;1205;47.984;7.668;2024-02-28T13:51:29;11.60;99.90
2389;DHT22;1205;47.984;7.668;2024-02-28T13:53:55;11.70;99.90
2389;DHT22;1205;47.984;7.668;2024-02-28T13:56:21;11.60;99.90
2389;DHT22;1205;47.984;7.668;2024-02-28T13:58:46;11.60;99.90
2389;DHT22;1205;47.984;7.668;2024-02-28T14:01:12;11.60;99.90
2389;DHT22;1205;47.984;7.668;2024-02-28T14:03:38;11.40;99.90
2389;DHT22;1205;47.984;7.668;2024-02-28T14:06:04;11.50;99.90
2389;DHT22;1205;47.984;7.668;2024-02-28T14:08:29;11.60;99.90
2389;DHT22;1205;47.984;7.668;2024-02-28T14:10:55;11.60;99.90
2389;DHT22;1205;47.984;7.668;2024-02-28T14:13:21;11.60;99.90
2389;DHT22;1205;47.984;7.668;2024-02-28T14:15:46;11.70;99.90
2389;DHT22;1205;47.984;7.668;2024-02-28T14:18:12;11.70;99.90
2389;DHT22;1205;47.984;7.668;2024-02-28T14:20:38;11.70;99.90
2389;DHT22;1205;47.984;7.668;2024-02-28T14:23:04;11.60;99.90
2389;DHT22;1205;47.984;7.668;2024-02-28T14:25:30;11.80;99.90
2389;DHT22;1205;47.984;7.668;2024-02-28T14:27:56;11.80;99.90
2389;DHT22;1205;47.984;7.668;2024-02-28T14:30:22;11.80;99.90
2389;DHT22;1205;47.984;7.668;2024-02-28T14:32:49;11.80;99.90
2389;DHT22;1205;47.984;7.668;2024-02-28T14:35:15;11.80;99.90
2389;DHT22;1205;47.984;7.668;2024-02-28T14:37:40;11.80;99.90
2389;DHT22;1205;47.984;7.668;2024-02-28T14:40:07;11.70;99.90
2389;DHT22;1205;47.984;7.668;2024-02-28T14:42:38;11.70;99.90
2389;DHT22;1205;47.984;7.668;2024-02-28T14:45:10;11.80;99.90
2389;DHT22;1205;47.984;7.668;2024-02-28T14:47:37;11.80;99.90
2389;DHT22;1205;47.984;7.668;2024-02-28T14:50:03;11.80;99.90
2389;DHT22;1205;47.984;7.668;2024-02-28T14:52:29;11.80;99.90
2389;DHT22;1205;47.984;7.668;2024-02-28T14:54:54;11.70;99.90
2389;DHT22;1205;47.984;7.668;2024-02-28T14:57:20;11.70;99.90
2389;DHT22;1205;47.984;7.668;2024-02-28T14:59:45;11.70;99.90
2389;DHT22;1205;47.984;7.668;2024-02-28T15:02:12;11.70;99.90
2389;DHT22;1205;47.984;7.668;2024-02-28T15:04:37;11.70;99.90
2389;DHT22;1205;47.984;7.668;2024-02-28T15:07:04;11.70;99.90
2389;DHT22;1205;47.984;7.668;2024-02-28T15:09:30;11.60;99.90
2389;DHT22;1205;47.984;7.668;2024-02-28T15:11:55;11.60;99.90
2389;DHT22;1205;47.984;7.668;2024-02-28T15:14:22;11.70;99.90
2389;DHT22;1205;47.984;7.668;2024-02-28T15:16:48;11.60;99.90
2389;DHT22;1205;47.984;7.668;2024-02-28T15:19:14;11.60;99.90
2389;DHT22;1205;47.984;7.668;2024-02-28T15:21:40;11.50;99.90
2389;DHT22;1205;47.984;7.668;2024-02-28T15:24:06;11.50;99.90
2389;DHT22;1205;47.984;7.668;2024-02-28T15:26:31;11.50;99.90
2389;DHT22;1205;47.984;7.668;2024-02-28T15:28:57;11.60;99.90
2389;DHT22;1205;47.984;7.668;2024-02-28T15:31:23;11.50;99.90
2389;DHT22;1205;47.984;7.668;2024-02-28T15:33:48;11.50;99.90
2389;DHT22;1205;47.984;7.668;2024-02-28T15:36:14;11.50;99.90
2389;DHT22;1205;47.984;7.668;2024-02-28T15:38:40;11.40;99.90
2389;DHT22;1205;47.984;7.668;2024-02-28T15:41:05;11.40;99.90
2389;DHT22;1205;47.984;7.668;2024-02-28T15:43:31;11.50;99.90
2389;DHT22;1205;47.984;7.668;2024-02-28T15:45:57;11.50;99.90
2389;DHT22;1205;47.984;7.668;2024-02-28T15:48:22;11.50;99.90
2389;DHT22;1205;47.984;7.668;2024-02-28T15:50:48;11.50;99.90
2389;DHT22;1205;47.984;7.668;2024-02-28T15:53:14;11.40;99.90
2389;DHT22;1205;47.984;7.668;2024-02-28T15:55:40;11.40;99.90
2389;DHT22;1205;47.984;7.668;2024-02-28T15:58:05;11.40;99.90
2389;DHT22;1205;47.984;7.668;2024-02-28T16:00:31;11.40;99.90
2389;DHT22;1205;47.984;7.668;2024-02-28T16:02:56;11.30;99.90
2389;DHT22;1205;47.984;7.668;2024-02-28T16:05:22;11.30;99.90
2389;DHT22;1205;47.984;7.668;2024-02-28T16:07:53;11.30;99.90
2389;DHT22;1205;47.984;7.668;2024-02-28T16:10:20;11.30;99.90
2389;DHT22;1205;47.984;7.668;2024-02-28T16:12:46;11.20;99.90
2389;DHT22;1205;47.984;7.668;2024-02-28T16:15:11;11.30;99.90
2389;DHT22;1205;47.984;7.668;2024-02-28T16:17:37;11.30;99.90
2389;DHT22;1205;47.984;7.668;2024-02-28T16:20:04;11.40;99.90
2389;DHT22;1205;47.984;7.668;2024-02-28T16:22:30;11.30;99.90
2389;DHT22;1205;47.984;7.668;2024-02-28T16:24:56;11.40;99.90
2389;DHT22;1205;47.984;7.668;2024-02-28T16:27:21;11.40;99.90
2389;DHT22;1205;47.984;7.668;2024-02-28T16:29:47;11.20;99.90
2389;DHT22;1205;47.984;7.668;2024-02-28T16:32:13;11.20;99.90
2389;DHT22;1205;47.984;7.668;2024-02-28T16:34:39;11.10;99.90
2389;DHT22;1205;47.984;7.668;2024-02-28T16:37:05;11.10;99.90
2389;DHT22;1205;47.984;7.668;2024-02-28T16:39:32;11.20;99.90
2389;DHT22;1205;47.984;7.668;2024-02-28T16:41:58;11.10;99.90
2389;DHT22;1205;47.984;7.668;2024-02-28T16:44:24;11.00;99.90
2389;DHT22;1205;47.984;7.668;2024-02-28T16:46:50;11.00;99.90
2389;DHT22;1205;47.984;7.668;2024-02-28T16:49:16;10.90;99.90
2389;DHT22;1205;47.984;7.668;2024-02-28T16:51:44;10.90;99.90
2389;DHT22;1205;47.984;7.668;2024-02-28T16:54:10;10.90;99.90
2389;DHT22;1205;47.984;7.668;2024-02-28T16:56:38;10.90;99.90
2389;DHT22;1205;47.984;7.668;2024-02-28T16:59:04;10.80;99.90
2389;DHT22;1205;47.984;7.668;2024-02-28T17:01:30;10.70;99.90
2389;DHT22;1205;47.984;7.668;2024-02-28T17:03:56;10.60;99.90
2389;DHT22;1205;47.984;7.668;2024-02-28T17:06:21;10.60;99.90
2389;DHT22;1205;47.984;7.668;2024-02-28T17:08:47;10.60;99.90
2389;DHT22;1205;47.984;7.668;2024-02-28T17:11:13;10.50;99.90
2389;DHT22;1205;47.984;7.668;2024-02-28T17:13:39;10.50;99.90
2389;DHT22;1205;47.984;7.668;2024-02-28T17:16:05;10.50;99.90
2389;DHT22;1205;47.984;7.668;2024-02-28T17:18:31;10.50;99.90
2389;DHT22;1205;47.984;7.668;2024-02-28T17:20:58;10.40;99.90
2389;DHT22;1205;47.984;7.668;2024-02-28T17:23:23;10.30;99.90
2389;DHT22;1205;47.984;7.668;2024-02-28T17:25:55;10.30;99.90
2389;DHT22;1205;47.984;7.668;2024-02-28T17:28:21;10.30;99.90
2389;DHT22;1205;47.984;7.668;2024-02-28T17:30:46;10.30;99.90
2389;DHT22;1205;47.984;7.668;2024-02-28T17:33:12;10.20;99.90
2389;DHT22;1205;47.984;7.668;2024-02-28T17:35:38;10.20;99.90
2389;DHT22;1205;47.984;7.668;2024-02-28T17:38:06;10.10;99.90
2389;DHT22;1205;47.984;7.668;2024-02-28T17:40:32;10.10;99.90
2389;DHT22;1205;47.984;7.668;2024-02-28T17:42:58;10.10;99.90
2389;DHT22;1205;47.984;7.668;2024-02-28T17:45:24;10.00;99.90
2389;DHT22;1205;47.984;7.668;2024-02-28T17:47:50;10.00;99.90
2389;DHT22;1205;47.984;7.668;2024-02-28T17:50:15;10.10;99.90
2389;DHT22;1205;47.984;7.668;2024-02-28T17:52:43;10.10;99.90
2389;DHT22;1205;47.984;7.668;2024-02-28T17:55:09;10.80;99.90
2389;DHT22;1205;47.984;7.668;2024-02-28T17:57:35;10.50;99.90
2389;DHT22;1205;47.984;7.668;2024-02-28T18:00:02;10.40;99.90
2389;DHT22;1205;47.984;7.668;2024-02-28T18:02:28;10.30;99.90
2389;DHT22;1205;47.984;7.668;2024-02-28T18:04:54;10.30;99.90
2389;DHT22;1205;47.984;7.668;2024-02-28T18:07:19;10.20;99.90
2389;DHT22;1205;47.984;7.668;2024-02-28T18:09:45;10.20;99.90
2389;DHT22;1205;47.984;7.668;2024-02-28T18:12:12;10.20;99.90
2389;DHT22;1205;47.984;7.668;2024-02-28T18:14:38;10.10;99.90
2389;DHT22;1205;47.984;7.668;2024-02-28T18:17:03;10.10;99.90
2389;DHT22;1205;47.984;7.668;2024-02-28T18:19:29;10.10;99.90
2389;DHT22;1205;47.984;7.668;2024-02-28T18:21:55;10.10;99.90
2389;DHT22;1205;47.984;7.668;2024-02-28T18:24:22;10.00;99.90
2389;DHT22;1205;47.984;7.668;2024-02-28T18:26:47;10.00;99.90
2389;DHT22;1205;47.984;7.668;2024-02-28T18:29:13;10.00;99.90